createdAt,value
2023-06-30T00:00:58.648Z,12.74
2023-06-30T00:01:58.586Z,12.7
2023-06-30T00:02:58.711Z,12.7
2023-06-30T00:03:58.659Z,12.69
2023-06-30T00:04:58.643Z,12.66
2023-06-30T00:05:58.652Z,12.59
2023-06-30T00:06:58.638Z,12.62
2023-06-30T00:07:58.653Z,12.61
2023-06-30T00:08:58.701Z,12.64
2023-06-30T00:09:58.740Z,12.71
2023-06-30T00:10:58.759Z,12.81
2023-06-30T00:11:58.703Z,12.86
2023-06-30T00:12:58.736Z,12.91
2023-06-30T00:13:58.755Z,12.95
2023-06-30T00:14:58.934Z,12.97
2023-06-30T00:15:58.901Z,12.94
2023-06-30T00:16:58.808Z,12.98
2023-06-30T00:17:58.817Z,13
2023-06-30T00:18:59.302Z,12.97
2023-06-30T00:19:59.038Z,12.85
2023-06-30T00:20:59.010Z,12.77
2023-06-30T00:21:58.860Z,12.65
2023-06-30T00:22:58.997Z,12.63
2023-06-30T00:23:58.860Z,12.64
2023-06-30T00:24:58.976Z,12.68
2023-06-30T00:25:58.924Z,12.7
2023-06-30T00:26:58.974Z,12.7
2023-06-30T00:27:58.962Z,12.69
2023-06-30T00:28:58.939Z,12.64
2023-06-30T00:29:59.180Z,12.59
2023-06-30T00:30:58.999Z,12.56
2023-06-30T00:31:59.019Z,12.53
2023-06-30T00:32:59.021Z,12.51
2023-06-30T00:33:59.214Z,12.52
2023-06-30T00:34:59.237Z,12.5
2023-06-30T00:35:59.053Z,12.45
2023-06-30T00:36:59.051Z,12.4
2023-06-30T00:37:59.143Z,12.36
2023-06-30T00:38:59.316Z,12.41
2023-06-30T00:39:59.098Z,12.35
2023-06-30T00:40:59.109Z,12.36
2023-06-30T00:41:59.161Z,12.35
2023-06-30T00:42:59.117Z,12.38
2023-06-30T00:43:59.123Z,12.39
2023-06-30T00:44:59.144Z,12.38
2023-06-30T00:45:59.399Z,12.37
2023-06-30T00:46:59.534Z,12.38
2023-06-30T00:47:59.251Z,12.34
2023-06-30T00:48:59.236Z,12.42
2023-06-30T00:49:59.291Z,12.4
2023-06-30T00:50:59.554Z,12.38
2023-06-30T00:52:00.116Z,12.37
2023-06-30T00:52:59.876Z,12.37
2023-06-30T00:53:59.459Z,12.33
2023-06-30T00:54:59.316Z,12.32
2023-06-30T00:55:59.360Z,12.33
2023-06-30T00:56:59.683Z,12.32
2023-06-30T00:57:59.326Z,12.27
2023-06-30T00:58:59.406Z,12.3
2023-06-30T00:59:59.391Z,12.27
2023-06-30T01:01:02.226Z,12.28
2023-06-30T01:02:02.209Z,12.33
2023-06-30T01:03:10.432Z,12.29
2023-06-30T01:04:07.585Z,12.3
2023-06-30T01:05:18.566Z,12.25
2023-06-30T01:06:09.329Z,12.21
2023-06-30T01:09:12.742Z,12.28
2023-06-30T01:10:15.977Z,12.28
2023-06-30T01:11:12.548Z,12.28
2023-06-30T01:12:12.185Z,12.35
2023-06-30T01:13:12.500Z,12.38
2023-06-30T01:14:12.294Z,12.31
2023-06-30T01:15:13.248Z,12.21
2023-06-30T01:16:12.536Z,12.15
2023-06-30T01:17:12.592Z,12.24
2023-06-30T01:18:13.187Z,12.27
2023-06-30T01:19:18.139Z,12.4
2023-06-30T01:20:15.656Z,12.41
2023-06-30T01:21:15.811Z,12.37
2023-06-30T01:24:23.766Z,12.29
2023-06-30T01:25:22.185Z,12.24
2023-06-30T01:26:22.016Z,12.2
2023-06-30T01:27:21.788Z,12.21
2023-06-30T01:28:21.570Z,12.21
2023-06-30T01:29:21.624Z,12.27
2023-06-30T01:30:22.196Z,12.33
2023-06-30T01:31:21.593Z,12.3
2023-06-30T01:32:21.565Z,12.28
2023-06-30T01:33:21.566Z,12.31
2023-06-30T01:34:22.221Z,12.28
2023-06-30T01:35:24.199Z,12.41
2023-06-30T01:36:21.481Z,12.38
2023-06-30T01:37:21.500Z,12.42
2023-06-30T01:38:21.531Z,12.49
2023-06-30T01:39:21.861Z,12.54
2023-06-30T01:40:22.387Z,12.66
2023-06-30T01:41:21.754Z,12.7
2023-06-30T01:42:21.543Z,12.65
2023-06-30T01:43:21.583Z,12.49
2023-06-30T01:44:21.711Z,12.32
2023-06-30T01:45:22.237Z,12.15
2023-06-30T01:46:21.866Z,12.13
2023-06-30T01:47:21.843Z,12.13
2023-06-30T01:48:22.000Z,12.07
2023-06-30T01:49:22.286Z,12.12
2023-06-30T01:50:22.039Z,12.17
2023-06-30T01:51:21.864Z,12.2
2023-06-30T01:52:21.866Z,12.19
2023-06-30T01:53:21.727Z,12.2
2023-06-30T01:54:21.774Z,12.13
2023-06-30T01:55:21.753Z,12.12
2023-06-30T01:56:21.762Z,12.1
2023-06-30T01:57:21.771Z,12.12
2023-06-30T01:58:21.890Z,12.18
2023-06-30T01:59:21.771Z,12.15
2023-06-30T02:00:21.805Z,12.15
2023-06-30T02:01:21.903Z,12.12
2023-06-30T02:02:21.944Z,12.15
2023-06-30T02:03:21.915Z,12.13
2023-06-30T02:04:21.853Z,12.12
2023-06-30T02:05:21.864Z,12.08
2023-06-30T02:06:22.020Z,12.08
2023-06-30T02:07:21.914Z,12.12
2023-06-30T02:08:21.893Z,12.23
2023-06-30T02:09:25.806Z,12.37
2023-06-30T02:10:22.266Z,12.3
2023-06-30T02:11:22.305Z,12.36
2023-06-30T02:12:22.394Z,12.33
2023-06-30T02:13:22.523Z,12.26
2023-06-30T02:14:23.027Z,12.23
2023-06-30T02:15:22.347Z,12.63
2023-06-30T02:16:22.454Z,12.6
2023-06-30T02:17:28.903Z,12.48
2023-06-30T02:18:25.178Z,12.57
2023-06-30T02:19:25.244Z,12.59
2023-06-30T02:20:25.221Z,12.6
2023-06-30T02:21:26.265Z,12.6
2023-06-30T02:22:25.252Z,12.64
2023-06-30T02:23:25.271Z,12.68
2023-06-30T02:24:25.268Z,12.66
2023-06-30T02:25:25.298Z,12.64
2023-06-30T02:26:25.303Z,12.66
2023-06-30T02:27:25.504Z,12.66
2023-06-30T02:28:25.300Z,12.72
2023-06-30T02:29:25.318Z,12.79
2023-06-30T02:30:25.316Z,12.79
2023-06-30T02:31:25.399Z,12.77
2023-06-30T02:32:25.431Z,12.83
2023-06-30T02:33:25.386Z,13.01
2023-06-30T02:34:25.395Z,13.21
2023-06-30T02:35:25.517Z,13.27
2023-06-30T02:36:25.456Z,13.3
2023-06-30T02:37:25.508Z,13.32
2023-06-30T02:38:25.439Z,13.34
2023-06-30T02:39:25.667Z,13.39
2023-06-30T02:40:25.506Z,13.39
2023-06-30T02:41:25.495Z,13.35
2023-06-30T02:42:25.543Z,13.41
2023-06-30T02:43:25.545Z,13.33
2023-06-30T02:44:25.544Z,13.32
2023-06-30T02:45:25.584Z,13.39
2023-06-30T02:46:25.667Z,13.36
2023-06-30T02:47:25.592Z,13.32
2023-06-30T02:48:25.626Z,13.35
2023-06-30T02:49:25.808Z,13.36
2023-06-30T02:50:29.529Z,13.36
2023-06-30T02:51:25.727Z,13.36
2023-06-30T02:52:25.731Z,13.38
2023-06-30T02:53:25.805Z,13.38
2023-06-30T02:54:25.769Z,13.29
2023-06-30T02:55:25.796Z,13.35
2023-06-30T02:56:25.791Z,13.36
2023-06-30T02:57:26.071Z,13.34
2023-06-30T02:58:26.034Z,13.37
2023-06-30T02:59:25.864Z,13.44
2023-06-30T03:00:25.877Z,13.41
2023-06-30T03:01:25.983Z,13.48
2023-06-30T03:02:26.014Z,13.44
2023-06-30T03:03:25.964Z,13.34
2023-06-30T03:04:25.929Z,13.35
2023-06-30T03:05:25.916Z,13.36
2023-06-30T03:06:25.941Z,13.38
2023-06-30T03:07:26.483Z,13.38
2023-06-30T03:08:26.038Z,13.49
2023-06-30T03:09:26.009Z,13.48
2023-06-30T03:10:26.008Z,13.59
2023-06-30T03:11:26.113Z,13.54
2023-06-30T03:12:26.071Z,13.49
2023-06-30T03:13:26.247Z,13.61
2023-06-30T03:14:26.094Z,13.7
2023-06-30T03:15:26.140Z,13.64
2023-06-30T03:16:26.148Z,13.57
2023-06-30T03:17:26.153Z,13.49
2023-06-30T03:18:26.181Z,13.53
2023-06-30T03:19:26.196Z,13.59
2023-06-30T03:20:26.180Z,13.57
2023-06-30T03:21:26.190Z,13.71
2023-06-30T03:22:26.199Z,13.85
2023-06-30T03:23:26.210Z,13.75
2023-06-30T03:24:26.299Z,13.81
2023-06-30T03:25:26.311Z,13.75
2023-06-30T03:26:26.268Z,13.83
2023-06-30T03:27:26.278Z,13.94
2023-06-30T03:28:26.320Z,13.98
2023-06-30T03:29:26.621Z,13.94
2023-06-30T03:30:26.298Z,14.04
2023-06-30T03:31:26.407Z,14.05
2023-06-30T03:32:26.381Z,14.05
2023-06-30T03:33:26.354Z,14.05
2023-06-30T03:34:26.428Z,14.03
2023-06-30T03:35:26.608Z,14.05
2023-06-30T03:36:26.433Z,14.06
2023-06-30T03:37:26.426Z,14.17
2023-06-30T03:38:26.444Z,14.18
2023-06-30T03:39:26.689Z,14.21
2023-06-30T03:40:26.542Z,14.19
2023-06-30T03:41:26.527Z,14.26
2023-06-30T03:42:26.570Z,14.29
2023-06-30T03:43:26.548Z,14.25
2023-06-30T03:44:26.581Z,14.3
2023-06-30T03:45:26.619Z,14.32
2023-06-30T03:46:26.617Z,14.35
2023-06-30T03:47:26.642Z,14.34
2023-06-30T03:48:26.635Z,14.37
2023-06-30T03:49:26.630Z,14.37
2023-06-30T03:50:26.658Z,14.39
2023-06-30T03:51:26.678Z,14.41
2023-06-30T03:52:26.673Z,14.49
2023-06-30T03:53:26.668Z,14.54
2023-06-30T03:54:26.704Z,14.52
2023-06-30T03:55:26.796Z,14.54
2023-06-30T03:56:26.735Z,14.57
2023-06-30T03:57:26.772Z,14.6
2023-06-30T03:58:26.794Z,14.66
2023-06-30T03:59:26.782Z,14.69
2023-06-30T04:00:26.855Z,14.73
2023-06-30T04:01:26.811Z,14.74
2023-06-30T04:02:26.947Z,14.83
2023-06-30T04:03:28.123Z,14.81
2023-06-30T04:04:27.005Z,14.8
2023-06-30T04:05:26.983Z,14.91
2023-06-30T04:06:26.912Z,14.89
2023-06-30T04:07:27.005Z,14.88
2023-06-30T04:08:27.195Z,15.01
2023-06-30T04:09:26.989Z,15
2023-06-30T04:10:26.969Z,15.06
2023-06-30T04:11:27.045Z,15.06
2023-06-30T04:12:27.015Z,15.09
2023-06-30T04:13:27.019Z,15.15
2023-06-30T04:14:27.031Z,15.19
2023-06-30T04:15:27.097Z,15.28
2023-06-30T04:16:27.186Z,15.16
2023-06-30T04:17:27.132Z,15.28
2023-06-30T04:18:27.104Z,15.34
2023-06-30T04:19:27.138Z,15.45
2023-06-30T04:20:27.252Z,15.43
2023-06-30T04:21:27.295Z,15.49
2023-06-30T04:22:27.189Z,15.41
2023-06-30T04:23:27.201Z,15.53
2023-06-30T04:24:27.190Z,15.44
2023-06-30T04:25:27.220Z,15.48
2023-06-30T04:26:27.299Z,15.55
2023-06-30T04:27:27.251Z,15.61
2023-06-30T04:28:27.534Z,15.57
2023-06-30T04:29:27.259Z,15.6
2023-06-30T04:30:27.329Z,15.66
2023-06-30T04:31:27.338Z,15.7
2023-06-30T04:32:27.357Z,15.69
2023-06-30T04:33:27.935Z,15.69
2023-06-30T04:34:27.976Z,15.75
2023-06-30T04:35:28.036Z,15.83
2023-06-30T04:36:27.969Z,15.85
2023-06-30T04:37:28.048Z,15.9
2023-06-30T04:38:28.134Z,15.93
2023-06-30T04:39:28.217Z,15.99
2023-06-30T04:40:28.078Z,16.04
2023-06-30T04:41:28.101Z,15.92
2023-06-30T04:42:28.227Z,15.93
2023-06-30T04:43:28.112Z,16.01
2023-06-30T04:44:28.123Z,16.02
2023-06-30T04:45:28.142Z,16.1
2023-06-30T04:46:28.189Z,16.16
2023-06-30T04:47:28.170Z,16.15
2023-06-30T04:48:28.234Z,16.05
2023-06-30T04:49:28.198Z,16.14
2023-06-30T04:50:28.256Z,16.17
2023-06-30T04:51:28.269Z,16.23
2023-06-30T04:52:28.610Z,16.34
2023-06-30T04:53:28.309Z,16.33
2023-06-30T04:54:28.295Z,16.28
2023-06-30T04:55:28.526Z,16.36
2023-06-30T04:56:28.330Z,16.47
2023-06-30T04:57:28.364Z,16.43
2023-06-30T04:58:28.390Z,16.52
2023-06-30T04:59:28.472Z,16.57
2023-06-30T05:00:28.396Z,16.32
2023-06-30T05:01:28.459Z,16.37
2023-06-30T05:02:28.587Z,16.4
2023-06-30T05:03:28.477Z,16.37
2023-06-30T05:04:28.459Z,16.47
2023-06-30T05:05:28.479Z,16.41
2023-06-30T05:06:28.460Z,16.59
2023-06-30T05:07:28.526Z,16.65
2023-06-30T05:08:28.548Z,16.61
2023-06-30T05:09:28.513Z,16.65
2023-06-30T05:10:28.554Z,16.75
2023-06-30T05:11:28.548Z,16.62
2023-06-30T05:12:28.569Z,16.6
2023-06-30T05:13:28.601Z,16.68
2023-06-30T05:14:28.620Z,16.8
2023-06-30T05:15:28.605Z,16.69
2023-06-30T05:16:28.699Z,16.88
2023-06-30T05:17:28.833Z,16.89
2023-06-30T05:18:28.762Z,16.92
2023-06-30T05:19:28.735Z,16.88
2023-06-30T05:20:28.749Z,16.92
2023-06-30T05:21:28.720Z,16.88
2023-06-30T05:22:28.732Z,16.81
2023-06-30T05:23:28.763Z,16.82
2023-06-30T05:24:28.792Z,16.91
2023-06-30T05:25:28.836Z,16.97
2023-06-30T05:26:28.833Z,17.03
2023-06-30T05:27:28.833Z,17.08
2023-06-30T05:28:28.891Z,17.1
2023-06-30T05:29:32.178Z,17.1
2023-06-30T05:30:28.974Z,17.2
2023-06-30T05:31:28.961Z,17.21
2023-06-30T05:32:28.918Z,17.19
2023-06-30T05:33:29.085Z,17.12
2023-06-30T05:34:28.907Z,17.23
2023-06-30T05:35:28.966Z,17.26
2023-06-30T05:36:31.753Z,17.23
2023-06-30T05:37:28.995Z,17.2
2023-06-30T05:38:29.032Z,17.06
2023-06-30T05:39:29.122Z,17.02
2023-06-30T05:40:29.038Z,17.15
2023-06-30T05:41:29.053Z,17.2
2023-06-30T05:42:29.061Z,17.3
2023-06-30T05:43:29.076Z,17.39
2023-06-30T05:44:29.120Z,17.4
2023-06-30T05:45:29.219Z,17.41
2023-06-30T05:46:29.191Z,17.51
2023-06-30T05:47:29.316Z,17.63
2023-06-30T05:48:29.199Z,17.53
2023-06-30T05:49:29.274Z,17.64
2023-06-30T05:50:29.215Z,17.71
2023-06-30T05:51:29.452Z,17.85
2023-06-30T05:52:29.251Z,17.83
2023-06-30T05:53:29.231Z,17.92
2023-06-30T05:54:29.303Z,17.9
2023-06-30T05:55:29.298Z,17.93
2023-06-30T05:56:29.903Z,17.91
2023-06-30T05:57:29.317Z,18
2023-06-30T05:58:29.345Z,18.09
2023-06-30T05:59:29.464Z,18.22
2023-06-30T06:00:29.346Z,18.32
2023-06-30T06:01:29.382Z,18.36
2023-06-30T06:02:29.700Z,18.25
2023-06-30T06:03:29.531Z,18.31
2023-06-30T06:04:29.567Z,18.45
2023-06-30T06:05:29.543Z,18.43
2023-06-30T06:06:29.444Z,18.4
2023-06-30T06:07:29.596Z,18.4
2023-06-30T06:08:29.499Z,18.5
2023-06-30T06:09:29.636Z,18.58
2023-06-30T06:10:29.701Z,18.71
2023-06-30T06:11:29.735Z,18.7
2023-06-30T06:12:29.590Z,18.71
2023-06-30T06:13:36.518Z,18.68
2023-06-30T06:14:32.719Z,18.87
2023-06-30T06:15:32.721Z,18.92
2023-06-30T06:16:32.780Z,19.04
2023-06-30T06:17:33.417Z,19.19
2023-06-30T06:18:33.048Z,19.18
2023-06-30T06:19:32.800Z,19.35
2023-06-30T06:20:32.821Z,19.25
2023-06-30T06:21:32.831Z,19.21
2023-06-30T06:22:32.971Z,19.12
2023-06-30T06:23:32.944Z,19.16
2023-06-30T06:24:32.884Z,19.13
2023-06-30T06:25:32.877Z,19.36
2023-06-30T06:26:32.941Z,19.47
2023-06-30T06:27:35.925Z,19.48
2023-06-30T06:28:32.923Z,19.54
2023-06-30T06:29:32.948Z,19.54
2023-06-30T06:30:32.963Z,19.6
2023-06-30T06:31:32.957Z,19.68
2023-06-30T06:32:33.158Z,19.65
2023-06-30T06:33:33.006Z,19.77
2023-06-30T06:34:33.024Z,19.79
2023-06-30T06:35:33.067Z,19.8
2023-06-30T06:36:33.026Z,19.85
2023-06-30T06:37:33.042Z,19.92
2023-06-30T06:38:33.082Z,19.94
2023-06-30T06:39:33.244Z,19.97
2023-06-30T06:40:33.190Z,19.88
2023-06-30T06:41:33.139Z,19.93
2023-06-30T06:42:33.153Z,20.06
2023-06-30T06:43:33.187Z,19.95
2023-06-30T06:44:33.199Z,20.1
2023-06-30T06:45:33.209Z,20.07
2023-06-30T06:46:33.472Z,20.12
2023-06-30T06:48:38.076Z,20.12
2023-06-30T06:49:38.104Z,20.17
2023-06-30T06:50:38.095Z,20.3
2023-06-30T06:51:38.105Z,20.27
2023-06-30T06:52:38.102Z,20.31
2023-06-30T06:53:38.127Z,20.36
2023-06-30T06:54:38.170Z,20.31
2023-06-30T06:55:38.694Z,20.4
2023-06-30T06:56:38.885Z,20.5
2023-06-30T06:57:38.819Z,20.52
2023-06-30T06:58:39.025Z,20.74
2023-06-30T06:59:38.879Z,20.94
2023-06-30T07:00:38.900Z,20.86
2023-06-30T07:01:38.868Z,20.89
2023-06-30T07:02:38.864Z,20.91
2023-06-30T07:03:39.268Z,20.83
2023-06-30T07:04:38.991Z,20.76
2023-06-30T07:05:38.864Z,20.87
2023-06-30T07:06:38.883Z,21.02
2023-06-30T07:07:38.981Z,20.96
2023-06-30T07:08:39.417Z,20.92
2023-06-30T07:09:39.378Z,20.92
2023-06-30T07:10:39.878Z,21.02
2023-06-30T07:11:39.473Z,21.15
2023-06-30T07:12:39.487Z,21.21
2023-06-30T07:13:39.555Z,21.24
2023-06-30T07:14:39.511Z,21.34
2023-06-30T07:15:39.538Z,21.28
2023-06-30T07:16:39.611Z,21.17
2023-06-30T07:17:39.617Z,21.21
2023-06-30T07:18:39.706Z,21.36
2023-06-30T07:19:39.729Z,21.38
2023-06-30T07:20:39.583Z,21.39
2023-06-30T07:21:39.642Z,21.37
2023-06-30T07:22:39.636Z,21.34
2023-06-30T07:23:39.682Z,21.53
2023-06-30T07:24:43.669Z,21.36
2023-06-30T07:25:40.953Z,21.6
2023-06-30T07:26:40.963Z,21.57
2023-06-30T07:27:47.382Z,21.41
2023-06-30T07:28:43.988Z,21.51
2023-06-30T07:29:44.060Z,21.56
2023-06-30T07:30:44.191Z,21.56
2023-06-30T07:31:44.108Z,21.58
2023-06-30T07:32:44.108Z,21.61
2023-06-30T07:33:44.238Z,21.71
2023-06-30T07:34:44.126Z,21.74
2023-06-30T07:35:44.477Z,21.85
2023-06-30T07:36:44.189Z,21.6
2023-06-30T07:37:44.598Z,21.6
2023-06-30T07:38:44.216Z,21.69
2023-06-30T07:39:44.428Z,21.57
2023-06-30T07:40:55.132Z,21.57
2023-06-30T07:41:48.961Z,21.69
2023-06-30T07:42:48.040Z,21.8
2023-06-30T07:43:48.039Z,21.97
2023-06-30T07:44:48.058Z,21.82
2023-06-30T07:45:48.402Z,21.87
2023-06-30T07:46:48.145Z,22.14
2023-06-30T07:47:48.271Z,22.19
2023-06-30T07:48:48.236Z,22.1
2023-06-30T07:49:48.296Z,22.25
2023-06-30T07:51:03.301Z,22.11
2023-06-30T07:51:48.810Z,22.13
2023-06-30T07:52:49.576Z,22.09
2023-06-30T07:53:48.856Z,22.02
2023-06-30T07:54:48.848Z,22.02
2023-06-30T07:55:50.528Z,22.04
2023-06-30T07:56:48.870Z,22.39
2023-06-30T07:57:48.897Z,22.56
2023-06-30T07:58:48.865Z,22.43
2023-06-30T07:59:48.928Z,22.53
2023-06-30T08:00:48.924Z,22.67
2023-06-30T08:01:48.954Z,22.54
2023-06-30T08:02:49.378Z,22.28
2023-06-30T08:03:49.098Z,22.27
2023-06-30T08:04:49.264Z,22.62
2023-06-30T08:05:49.369Z,22.53
2023-06-30T08:06:49.014Z,23.08
2023-06-30T08:07:51.340Z,22.86
2023-06-30T08:08:49.420Z,22.6
2023-06-30T08:09:49.146Z,22.76
2023-06-30T08:10:49.318Z,22.84
2023-06-30T08:11:49.105Z,23
2023-06-30T08:12:49.118Z,22.93
2023-06-30T08:13:49.125Z,22.64
2023-06-30T08:14:49.204Z,22.68
2023-06-30T08:15:49.903Z,22.72
2023-06-30T08:16:49.232Z,23.11
2023-06-30T08:17:53.120Z,22.91
2023-06-30T08:18:51.189Z,23.12
2023-06-30T08:19:49.765Z,23.13
2023-06-30T08:20:49.393Z,22.82
2023-06-30T08:21:49.439Z,22.76
2023-06-30T08:22:49.505Z,22.97
2023-06-30T08:23:49.460Z,23.17
2023-06-30T08:24:49.630Z,23.28
2023-06-30T08:25:49.486Z,23.49
2023-06-30T08:26:49.496Z,23.24
2023-06-30T08:27:49.681Z,22.86
2023-06-30T08:28:49.489Z,22.97
2023-06-30T08:29:50.223Z,23.16
2023-06-30T08:30:49.968Z,23.72
2023-06-30T08:31:49.556Z,23.46
2023-06-30T08:32:49.825Z,23.28
2023-06-30T08:33:49.621Z,23.24
2023-06-30T08:34:49.619Z,23.33
2023-06-30T08:35:49.645Z,23.36
2023-06-30T08:36:49.640Z,23.33
2023-06-30T08:37:53.104Z,23.4
2023-06-30T08:38:50.289Z,23.28
2023-06-30T08:39:50.454Z,23.81
2023-06-30T08:40:50.462Z,23.97
2023-06-30T08:41:52.940Z,23.65
2023-06-30T08:42:52.516Z,24.05
2023-06-30T08:43:51.612Z,23.92
2023-06-30T08:44:51.211Z,24.06
2023-06-30T08:45:53.595Z,24.28
2023-06-30T08:46:54.398Z,23.87
2023-06-30T08:47:51.885Z,23.84
2023-06-30T08:48:51.604Z,23.48
2023-06-30T08:49:51.719Z,23.53
2023-06-30T08:50:51.026Z,23.79
2023-06-30T08:51:55.326Z,23.74
2023-06-30T08:52:52.240Z,23.99
2023-06-30T08:53:51.657Z,23.73
2023-06-30T08:54:52.363Z,23.73
2023-06-30T08:55:52.255Z,23.91
2023-06-30T08:56:54.344Z,23.82
2023-06-30T08:57:55.056Z,23.97
2023-06-30T08:58:52.316Z,23.88
2023-06-30T08:59:52.322Z,23.65
2023-06-30T09:00:52.601Z,23.84
2023-06-30T09:01:52.580Z,23.74
2023-06-30T09:02:53.857Z,23.36
2023-06-30T09:03:52.630Z,23.16
2023-06-30T09:04:52.568Z,23.27
2023-06-30T09:05:54.607Z,23.46
2023-06-30T09:06:53.302Z,23.62
2023-06-30T09:07:56.576Z,24.06
2023-06-30T09:10:00.768Z,23.72
2023-06-30T09:10:58.110Z,23.96
2023-06-30T09:11:57.798Z,24.05
2023-06-30T09:12:57.914Z,24.04
2023-06-30T09:13:57.632Z,23.93
2023-06-30T09:14:59.623Z,24.26
2023-06-30T09:15:58.663Z,24.09
2023-06-30T09:16:58.228Z,24.06
2023-06-30T09:17:58.124Z,23.85
2023-06-30T09:18:57.668Z,24.08
2023-06-30T09:19:57.596Z,24.11
2023-06-30T09:20:57.957Z,24.07
2023-06-30T09:21:57.866Z,23.94
2023-06-30T09:22:57.863Z,24.32
2023-06-30T09:23:57.640Z,24.21
2023-06-30T09:24:57.636Z,24.45
2023-06-30T09:25:57.715Z,24.59
2023-06-30T09:26:59.473Z,25
2023-06-30T09:27:57.694Z,24.58
2023-06-30T09:28:57.810Z,24.52
2023-06-30T09:29:57.689Z,24.4
2023-06-30T09:30:59.485Z,24.39
2023-06-30T09:32:00.981Z,24.47
2023-06-30T09:32:57.863Z,24.71
2023-06-30T09:35:09.250Z,24.66
2023-06-30T09:36:01.008Z,24.61
2023-06-30T09:37:01.025Z,24.62
2023-06-30T09:38:00.966Z,24.69
2023-06-30T09:39:00.981Z,24.76
2023-06-30T09:40:01.141Z,24.79
2023-06-30T09:41:04.406Z,25.6
2023-06-30T09:42:01.104Z,25.4
2023-06-30T09:43:01.128Z,25.21
2023-06-30T09:44:01.132Z,24.96
2023-06-30T09:45:01.567Z,24.85
2023-06-30T09:46:01.763Z,24.72
2023-06-30T09:47:01.243Z,24.64
2023-06-30T09:48:01.220Z,24.52
2023-06-30T09:49:01.163Z,25.51
2023-06-30T09:50:01.268Z,24.95
2023-06-30T09:51:01.338Z,25.15
2023-06-30T09:52:01.763Z,24.52
2023-06-30T09:53:01.757Z,24.69
2023-06-30T09:54:09.031Z,25.37
2023-06-30T09:55:12.138Z,25.37
2023-06-30T09:56:08.965Z,25.16
2023-06-30T09:57:08.851Z,25.37
2023-06-30T09:58:11.749Z,25
2023-06-30T09:59:13.888Z,25.14
2023-06-30T10:00:33.961Z,25.13
2023-06-30T10:01:11.454Z,25.37
2023-06-30T10:02:13.396Z,25.24
2023-06-30T10:03:11.530Z,25.15
2023-06-30T10:04:11.480Z,25.22
2023-06-30T10:05:11.979Z,25.56
2023-06-30T10:06:11.900Z,25.22
2023-06-30T10:07:14.471Z,25.08
2023-06-30T10:08:11.860Z,25.33
2023-06-30T10:09:11.816Z,25.1
2023-06-30T10:10:12.362Z,25.07
2023-06-30T10:11:11.829Z,25.43
2023-06-30T10:12:12.286Z,25.36
2023-06-30T10:13:12.360Z,25.35
2023-06-30T10:14:12.047Z,25.28
2023-06-30T10:15:11.965Z,25.4
2023-06-30T10:16:11.993Z,25.44
2023-06-30T10:17:12.106Z,25.2
2023-06-30T10:18:13.130Z,25.92
2023-06-30T10:19:11.746Z,25.62
2023-06-30T10:20:12.086Z,26.29
2023-06-30T10:21:12.191Z,26.23
2023-06-30T10:22:12.721Z,26.01
2023-06-30T10:23:12.430Z,25.43
2023-06-30T10:24:12.151Z,25.45
2023-06-30T10:25:12.834Z,25.46
2023-06-30T10:26:13.959Z,25.59
2023-06-30T10:27:13.900Z,26.09
2023-06-30T10:28:12.137Z,26.06
2023-06-30T10:29:11.897Z,25.8
2023-06-30T10:30:12.480Z,25.35
2023-06-30T10:31:12.136Z,25.07
2023-06-30T10:32:12.060Z,24.62
2023-06-30T10:33:12.118Z,24.47
2023-06-30T10:34:12.335Z,24.46
2023-06-30T10:35:12.292Z,24.64
2023-06-30T10:36:13.039Z,24.87
2023-06-30T10:37:12.216Z,25.21
2023-06-30T10:38:12.333Z,25.22
2023-06-30T10:39:12.558Z,25.39
2023-06-30T10:41:21.040Z,25.68
2023-06-30T10:42:17.912Z,25.97
2023-06-30T10:43:18.086Z,26.34
2023-06-30T10:44:18.407Z,26.11
2023-06-30T10:45:18.066Z,25.89
2023-06-30T10:46:18.099Z,25.81
2023-06-30T10:47:26.240Z,25.61
2023-06-30T10:48:27.589Z,25.67
2023-06-30T10:49:31.086Z,25.87
2023-06-30T10:50:27.880Z,26.48
2023-06-30T10:51:34.546Z,25.8
2023-06-30T10:52:31.176Z,25.73
2023-06-30T10:53:31.251Z,25.7
2023-06-30T10:55:35.140Z,25.7
2023-06-30T10:56:35.179Z,25.18
2023-06-30T10:57:37.809Z,24.65
2023-06-30T10:58:40.537Z,24.48
2023-06-30T10:59:38.209Z,24.4
2023-06-30T11:00:37.289Z,24.38
2023-06-30T11:01:37.993Z,24.3
2023-06-30T11:02:47.242Z,24.35
2023-06-30T11:04:44.483Z,25.27
2023-06-30T11:05:43.492Z,25.41
2023-06-30T11:06:46.187Z,25.44
2023-06-30T11:07:46.521Z,25.74
2023-06-30T11:10:48.470Z,25.62
2023-06-30T11:11:51.874Z,25.85
2023-06-30T11:14:05.963Z,25.78
2023-06-30T11:14:58.375Z,25.93
2023-06-30T11:15:57.699Z,26.06
2023-06-30T11:17:01.908Z,25.84
2023-06-30T11:17:59.222Z,25.7
2023-06-30T11:19:01.508Z,26.25
2023-06-30T11:23:03.892Z,26.23
2023-06-30T11:25:08.828Z,25.88
2023-06-30T11:26:15.149Z,25.93
2023-06-30T11:27:07.060Z,26.1
2023-06-30T11:28:06.759Z,26.41
2023-06-30T11:29:06.914Z,26.48
2023-06-30T11:30:07.843Z,26.31
2023-06-30T11:31:06.760Z,26.56
2023-06-30T11:32:07.222Z,26.63
2023-06-30T11:33:07.303Z,26.47
2023-06-30T11:34:06.874Z,27.02
2023-06-30T11:35:07.488Z,27.23
2023-06-30T11:36:12.801Z,26.62
2023-06-30T11:37:09.055Z,27.03
2023-06-30T11:38:08.999Z,26.91
2023-06-30T11:39:09.008Z,27.17
2023-06-30T11:40:09.257Z,27.1
2023-06-30T11:41:09.185Z,27.41
2023-06-30T11:42:09.048Z,27.4
2023-06-30T11:43:09.472Z,26.79
2023-06-30T11:44:09.115Z,27.17
2023-06-30T11:45:09.541Z,26.74
2023-06-30T11:46:09.208Z,26.41
2023-06-30T11:47:09.242Z,25.93
2023-06-30T11:48:09.151Z,26.6
2023-06-30T11:49:09.834Z,27.03
2023-06-30T11:50:09.625Z,27.19
2023-06-30T11:51:11.867Z,27.34
2023-06-30T11:52:09.757Z,27.36
2023-06-30T11:53:09.544Z,26.76
2023-06-30T11:54:09.207Z,26.07
2023-06-30T11:55:10.673Z,25.76
2023-06-30T11:56:09.390Z,25.39
2023-06-30T11:57:09.452Z,25.46
2023-06-30T11:58:09.284Z,25.5
2023-06-30T11:59:09.257Z,25.7
2023-06-30T12:00:10.480Z,25.42
2023-06-30T12:01:09.351Z,25.37
2023-06-30T12:02:11.596Z,25.02
2023-06-30T12:03:09.468Z,24.8
2023-06-30T12:05:11.103Z,24.89
2023-06-30T12:06:10.669Z,25.42
2023-06-30T12:07:10.627Z,25.91
2023-06-30T12:08:10.639Z,26.52
2023-06-30T12:09:10.663Z,26.37
2023-06-30T12:10:11.588Z,26.39
2023-06-30T12:11:10.679Z,26.64
2023-06-30T12:12:10.746Z,26.88
2023-06-30T12:13:10.819Z,27.28
2023-06-30T12:14:10.995Z,27.47
2023-06-30T12:15:13.831Z,26.66
2023-06-30T12:16:10.765Z,26.9
2023-06-30T12:17:10.751Z,26.83
2023-06-30T12:18:10.786Z,26.66
2023-06-30T12:19:10.758Z,26.72
2023-06-30T12:20:11.550Z,26.69
2023-06-30T12:21:11.618Z,26.91
2023-06-30T12:22:10.820Z,27.2
2023-06-30T12:23:10.855Z,26.81
2023-06-30T12:25:13.691Z,27.19
2023-06-30T12:26:14.422Z,27.3
2023-06-30T12:27:14.190Z,27.09
2023-06-30T12:28:14.197Z,26.97
2023-06-30T12:29:14.205Z,27.25
2023-06-30T12:30:14.714Z,27.61
2023-06-30T12:31:14.262Z,27.68
2023-06-30T12:32:14.724Z,27.7
2023-06-30T12:35:27.540Z,27.71
2023-06-30T12:36:28.669Z,27.42
2023-06-30T12:37:25.295Z,27
2023-06-30T12:38:25.311Z,26.36
2023-06-30T12:39:25.639Z,25.82
2023-06-30T12:40:28.645Z,25.42
2023-06-30T12:41:26.500Z,25.01
2023-06-30T12:42:28.534Z,24.87
2023-06-30T12:43:25.563Z,24.71
2023-06-30T12:44:25.527Z,24.73
2023-06-30T12:45:25.600Z,24.54
2023-06-30T12:46:25.640Z,24.48
2023-06-30T12:47:25.737Z,24.4
2023-06-30T12:48:25.635Z,24.36
2023-06-30T12:49:25.597Z,24.41
2023-06-30T12:50:25.624Z,24.51
2023-06-30T12:51:25.747Z,25.15
2023-06-30T12:52:25.634Z,26.1
2023-06-30T12:53:25.699Z,26.03
2023-06-30T12:54:25.945Z,26.3
2023-06-30T12:55:25.673Z,26.38
2023-06-30T12:56:25.985Z,26.71
2023-06-30T12:57:25.734Z,27.35
2023-06-30T12:58:26.938Z,27.7
2023-06-30T12:59:25.855Z,27.51
2023-06-30T13:00:25.760Z,27.46
2023-06-30T13:01:25.857Z,27.37
2023-06-30T13:02:25.797Z,27.45
2023-06-30T13:03:25.962Z,27.33
2023-06-30T13:04:28.324Z,27.43
2023-06-30T13:05:25.820Z,27.39
2023-06-30T13:06:25.854Z,27.56
2023-06-30T13:07:25.894Z,27.15
2023-06-30T13:08:25.815Z,27.19
2023-06-30T13:09:26.882Z,27.23
2023-06-30T13:10:26.570Z,27.11
2023-06-30T13:11:25.880Z,27.2
2023-06-30T13:12:26.362Z,26.95
2023-06-30T13:13:26.503Z,27.19
2023-06-30T13:14:26.494Z,27.63
2023-06-30T13:15:26.592Z,27.48
2023-06-30T13:16:26.595Z,27.34
2023-06-30T13:17:26.677Z,27.62
2023-06-30T13:18:27.120Z,27.6
2023-06-30T13:19:26.512Z,27.71
2023-06-30T13:20:26.605Z,27.53